createdAt,value
2023-04-24T00:00:13.895Z,99215.84
2023-04-24T00:01:37.942Z,99206.66
2023-04-24T00:03:01.049Z,99211.00
2023-04-24T00:04:23.286Z,99205.38
2023-04-24T00:05:46.650Z,99212.19
2023-04-24T00:07:09.836Z,99205.16
2023-04-24T00:08:33.340Z,99205.75
2023-04-24T00:09:56.383Z,99211.41
2023-04-24T00:11:19.164Z,99219.25
2023-04-24T00:12:42.132Z,99209.44
2023-04-24T00:14:05.007Z,99209.34
2023-04-24T00:15:27.800Z,99205.97
2023-04-24T00:16:51.319Z,99202.13
2023-04-24T00:18:14.346Z,99194.41
2023-04-24T00:19:37.187Z,99199.88
2023-04-24T00:20:59.672Z,99197.97
2023-04-24T00:22:23.129Z,99204.84
2023-04-24T00:23:46.363Z,99197.94
2023-04-24T00:25:10.035Z,99203.09
2023-04-24T00:26:31.881Z,99203.56
2023-04-24T00:27:54.685Z,99205.34
2023-04-24T00:29:17.477Z,99204.38
2023-04-24T00:30:40.308Z,99207.09
2023-04-24T00:32:02.153Z,99204.38
2023-04-24T00:33:25.075Z,99199.38
2023-04-24T00:34:47.859Z,99203.53
2023-04-24T00:36:10.769Z,99204.22
2023-04-24T00:37:33.646Z,99197.13
2023-04-24T00:38:57.767Z,99203.38
2023-04-24T00:40:20.587Z,99198.50
2023-04-24T00:42:02.483Z,99196.47
2023-04-24T00:43:25.669Z,99199.16
2023-04-24T00:44:48.973Z,99200.41
2023-04-24T00:46:11.632Z,99193.69
2023-04-24T00:47:35.125Z,99195.78
2023-04-24T00:48:58.423Z,99198.84
2023-04-24T00:50:22.301Z,99212.66
2023-04-24T00:51:46.413Z,99201.91
2023-04-24T00:53:09.237Z,99204.53
2023-04-24T00:54:32.002Z,99199.22
2023-04-24T00:55:54.798Z,99193.09
2023-04-24T00:57:18.886Z,99200.19
2023-04-24T00:58:42.708Z,99205.97
2023-04-24T01:00:06.906Z,99207.13
2023-04-24T01:01:29.886Z,99205.66
2023-04-24T01:02:53.951Z,99199.38
2023-04-24T01:04:19.036Z,99203.41
2023-04-24T01:05:41.935Z,99200.50
2023-04-24T01:07:05.669Z,99198.25
2023-04-24T01:08:30.090Z,99195.03
2023-04-24T01:09:53.114Z,99197.91
2023-04-24T01:11:16.468Z,99192.94
2023-04-24T01:12:40.652Z,99198.72
2023-04-24T01:14:03.582Z,99187.50
2023-04-24T01:15:26.596Z,99191.34
2023-04-24T01:16:49.389Z,99181.38
2023-04-24T01:18:11.440Z,99185.22
2023-04-24T01:19:34.279Z,99188.31
2023-04-24T01:20:59.114Z,99190.72
2023-04-24T01:22:23.267Z,99188.13
2023-04-24T01:23:46.611Z,99197.63
2023-04-24T01:25:09.720Z,99200.53
2023-04-24T01:26:32.647Z,99188.44
2023-04-24T01:27:55.841Z,99192.63
2023-04-24T01:29:17.683Z,99185.88
2023-04-24T01:30:40.586Z,99190.88
2023-04-24T01:32:04.621Z,99185.88
2023-04-24T01:33:27.684Z,99184.09
2023-04-24T01:34:50.252Z,99180.88
2023-04-24T01:36:13.875Z,99193.13
2023-04-24T01:37:38.372Z,99185.06
2023-04-24T01:39:01.497Z,99189.56
2023-04-24T01:40:23.644Z,99181.53
2023-04-24T01:41:46.485Z,99185.06
2023-04-24T01:43:09.586Z,99193.75
2023-04-24T01:44:32.804Z,99191.97
2023-04-24T01:45:54.683Z,99184.56
2023-04-24T01:47:17.831Z,99176.03
2023-04-24T01:48:39.780Z,99178.59
2023-04-24T01:50:02.670Z,99179.25
2023-04-24T01:51:25.482Z,99177.75
2023-04-24T01:52:49.671Z,99185.69
2023-04-24T01:54:11.566Z,99186.97
2023-04-24T01:55:34.908Z,99184.84
2023-04-24T01:56:56.926Z,99181.03
2023-04-24T01:58:19.760Z,99182.97
2023-04-24T01:59:41.916Z,99188.59
2023-04-24T02:01:05.037Z,99188.31
2023-04-24T02:02:28.675Z,99197.78
2023-04-24T02:03:51.796Z,99196.34
2023-04-24T02:05:13.807Z,99202.75
2023-04-24T02:06:36.975Z,99202.44
2023-04-24T02:08:00.193Z,99201.63
2023-04-24T02:09:23.029Z,99199.69
2023-04-24T02:10:46.169Z,99193.59
2023-04-24T02:12:08.407Z,99200.66
2023-04-24T02:13:31.245Z,99191.31
2023-04-24T02:14:54.031Z,99186.94
2023-04-24T02:16:15.859Z,99193.50
2023-04-24T02:17:38.787Z,99188.50
2023-04-24T02:19:00.845Z,99187.56
2023-04-24T02:20:23.785Z,99189.47
2023-04-24T02:21:46.579Z,99184.63
2023-04-24T02:23:09.788Z,99190.88
2023-04-24T02:24:32.647Z,99184.91
2023-04-24T02:25:54.631Z,99185.84
2023-04-24T02:27:17.462Z,99188.06
2023-04-24T02:28:39.331Z,99187.44
2023-04-24T02:30:02.124Z,99189.97
2023-04-24T02:31:25.085Z,99187.56
2023-04-24T02:32:46.947Z,99191.63
2023-04-24T02:34:09.963Z,99189.38
2023-04-24T02:35:33.047Z,99188.25
2023-04-24T02:36:55.176Z,99185.41
2023-04-24T02:38:19.315Z,99185.06
2023-04-24T02:39:42.231Z,99178.47
2023-04-24T02:41:07.172Z,99177.03
2023-04-24T02:42:29.961Z,99184.09
2023-04-24T02:43:52.730Z,99187.50
2023-04-24T02:45:14.652Z,99183.28
2023-04-24T02:46:37.503Z,99189.91
2023-04-24T02:47:59.357Z,99184.44
2023-04-24T02:49:22.197Z,99186.53
2023-04-24T02:50:44.060Z,99183.63
2023-04-24T02:52:06.883Z,99181.69
2023-04-24T02:53:31.577Z,99181.88
2023-04-24T02:54:54.923Z,99181.22
2023-04-24T02:56:16.763Z,99186.69
2023-04-24T02:57:39.596Z,99182.69
2023-04-24T02:59:01.440Z,99175.91
2023-04-24T03:00:24.336Z,99184.09
2023-04-24T03:01:47.270Z,99176.84
2023-04-24T03:03:09.345Z,99182.31
2023-04-24T03:04:33.185Z,99183.09
2023-04-24T03:05:56.642Z,99180.69
2023-04-24T03:07:21.737Z,99179.25
2023-04-24T03:08:45.940Z,99179.06
2023-04-24T03:10:09.044Z,99176.72
2023-04-24T03:11:31.986Z,99178.47
2023-04-24T03:12:53.847Z,99185.72
2023-04-24T03:14:16.680Z,99175.44
2023-04-24T03:15:38.536Z,99175.59
2023-04-24T03:17:01.482Z,99186.34
2023-04-24T03:18:24.248Z,99178.16
2023-04-24T03:19:46.181Z,99176.06
2023-04-24T03:21:09.075Z,99187.50
2023-04-24T03:22:30.903Z,99179.75
2023-04-24T03:23:54.978Z,99179.75
2023-04-24T03:25:17.773Z,99180.09
2023-04-24T03:26:39.643Z,99180.09
2023-04-24T03:28:02.482Z,99177.03
2023-04-24T03:29:24.339Z,99175.09
2023-04-24T03:30:47.303Z,99169.63
2023-04-24T03:32:09.150Z,99173.03
2023-04-24T03:33:31.977Z,99185.25
2023-04-24T03:34:54.303Z,99178.16
2023-04-24T03:36:17.102Z,99168.34
2023-04-24T03:37:38.925Z,99174.47
2023-04-24T03:39:03.043Z,99169.50
2023-04-24T03:40:25.858Z,99162.09
2023-04-24T03:41:47.693Z,99170.59
2023-04-24T03:43:10.451Z,99171.66
2023-04-24T03:44:18.224Z,99171.03
2023-04-24T03:45:40.668Z,99167.50
2023-04-24T03:47:03.627Z,99170.88
2023-04-24T03:48:25.704Z,99172.59
2023-04-24T03:49:48.215Z,99174.25
2023-04-24T03:51:10.782Z,99169.59
2023-04-24T03:52:32.272Z,99172.63
2023-04-24T03:53:54.688Z,99178.63
2023-04-24T03:55:18.512Z,99179.06
2023-04-24T03:56:40.019Z,99180.88
2023-04-24T03:58:02.646Z,99183.06
2023-04-24T03:59:25.088Z,99179.91
2023-04-24T04:00:47.775Z,99179.91
2023-04-24T04:02:10.401Z,99175.41
2023-04-24T04:03:32.258Z,99173.03
2023-04-24T04:04:55.052Z,99165.31
2023-04-24T04:06:16.744Z,99173.16
2023-04-24T04:07:39.286Z,99165.59
2023-04-24T04:09:01.850Z,99176.34
2023-04-24T04:10:25.771Z,99169.94
2023-04-24T04:11:47.310Z,99167.34
2023-04-24T04:13:09.892Z,99162.94
2023-04-24T04:14:32.362Z,99172.00
2023-04-24T04:15:53.914Z,99162.84
2023-04-24T04:17:16.429Z,99174.03
2023-04-24T04:18:38.689Z,99162.41
2023-04-24T04:20:01.260Z,99158.91
2023-04-24T04:21:22.973Z,99161.97
2023-04-24T04:22:45.406Z,99159.50
2023-04-24T04:24:08.260Z,99157.09
2023-04-24T04:25:31.204Z,99155.94
2023-04-24T04:26:57.435Z,99156.75
2023-04-24T04:28:20.889Z,99157.88
2023-04-24T04:29:44.014Z,99155.81
2023-04-24T04:31:08.686Z,99153.56
2023-04-24T04:32:30.250Z,99155.81
2023-04-24T04:33:52.744Z,99160.66
2023-04-24T04:35:14.366Z,99157.91
2023-04-24T04:36:37.782Z,99162.75
2023-04-24T04:38:00.648Z,99160.81
2023-04-24T04:39:22.349Z,99168.31
2023-04-24T04:40:46.451Z,99164.81
2023-04-24T04:42:08.050Z,99167.69
2023-04-24T04:43:31.999Z,99167.72
2023-04-24T04:44:54.663Z,99168.19
2023-04-24T04:46:16.865Z,99165.31
2023-04-24T04:47:40.475Z,99173.34
2023-04-24T04:49:03.810Z,99173.66
2023-04-24T04:50:26.313Z,99178.97
2023-04-24T04:51:48.081Z,99180.41
2023-04-24T04:53:10.729Z,99181.88
2023-04-24T04:54:32.414Z,99186.19
2023-04-24T04:55:56.404Z,99186.34
2023-04-24T04:57:18.848Z,99187.47
2023-04-24T04:58:41.365Z,99185.06
2023-04-24T05:00:05.753Z,99183.78
2023-04-24T05:01:28.476Z,99189.56
2023-04-24T05:02:52.255Z,99186.81
2023-04-24T05:04:15.418Z,99185.03
2023-04-24T05:05:41.434Z,99182.47
2023-04-24T05:07:03.919Z,99184.41
2023-04-24T05:08:27.419Z,99177.84
2023-04-24T05:09:50.491Z,99187.16
2023-04-24T05:11:14.554Z,99187.66
2023-04-24T05:12:36.125Z,99199.22
2023-04-24T05:13:58.689Z,99195.53
2023-04-24T05:15:21.187Z,99193.63
2023-04-24T05:16:43.673Z,99181.38
2023-04-24T05:18:06.334Z,99187.34
2023-04-24T05:19:28.886Z,99186.69
2023-04-24T05:20:51.383Z,99185.69
2023-04-24T05:22:14.201Z,99198.09
2023-04-24T05:23:35.861Z,99189.06
2023-04-24T05:24:58.537Z,99193.91
2023-04-24T05:26:23.676Z,99189.06
2023-04-24T05:27:46.771Z,99199.22
2023-04-24T05:29:09.275Z,99196.63
2023-04-24T05:30:31.889Z,99203.53
2023-04-24T05:31:54.469Z,99191.59
2023-04-24T05:33:17.070Z,99197.56
2023-04-24T05:34:39.645Z,99202.53
2023-04-24T05:36:02.096Z,99202.00
2023-04-24T05:37:24.634Z,99194.91
2023-04-24T05:38:47.172Z,99199.47
2023-04-24T05:40:11.357Z,99200.72
2023-04-24T05:41:35.380Z,99210.47
2023-04-24T05:42:58.035Z,99208.31
2023-04-24T05:44:20.535Z,99207.84
2023-04-24T05:45:43.002Z,99212.00
2023-04-24T05:47:05.687Z,99202.16
2023-04-24T05:48:27.232Z,99206.97
2023-04-24T05:49:49.712Z,99203.28
2023-04-24T05:51:12.296Z,99201.75
2023-04-24T05:52:34.767Z,99203.63
2023-04-24T05:53:57.277Z,99203.88
2023-04-24T05:55:19.867Z,99203.94
2023-04-24T05:56:44.070Z,99194.44
2023-04-24T05:58:06.890Z,99197.97
2023-04-24T05:59:29.361Z,99201.72
2023-04-24T06:00:51.887Z,99201.84
2023-04-24T06:02:14.410Z,99194.03
2023-04-24T06:03:37.221Z,99202.16
2023-04-24T06:05:00.126Z,99190.34
2023-04-24T06:06:22.881Z,99188.41
2023-04-24T06:07:46.786Z,99183.66
2023-04-24T06:09:09.380Z,99193.22
2023-04-24T06:10:31.877Z,99194.72
2023-04-24T06:11:55.744Z,99202.09
2023-04-24T06:13:18.407Z,99199.63
2023-04-24T06:14:40.830Z,99199.56
2023-04-24T06:16:03.602Z,99200.91
2023-04-24T06:17:26.156Z,99197.03
2023-04-24T06:18:49.258Z,99201.50
2023-04-24T06:20:12.911Z,99190.94
2023-04-24T06:21:35.603Z,99196.06
2023-04-24T06:22:59.821Z,99188.50
2023-04-24T06:24:22.314Z,99196.03
2023-04-24T06:25:44.865Z,99188.06
2023-04-24T06:27:08.786Z,99195.03
2023-04-24T06:28:31.280Z,99191.69
2023-04-24T06:29:55.795Z,99190.47
2023-04-24T06:31:18.262Z,99188.75
2023-04-24T06:32:41.418Z,99189.72
2023-04-24T06:34:03.959Z,99193.13
2023-04-24T06:35:27.226Z,99187.41
2023-04-24T06:36:49.883Z,99181.09
2023-04-24T06:38:12.355Z,99182.88
2023-04-24T06:39:34.833Z,99183.97
2023-04-24T06:40:57.316Z,99192.69
2023-04-24T06:42:23.203Z,99189.22
2023-04-24T06:43:45.995Z,99186.59
2023-04-24T06:45:09.507Z,99187.59
2023-04-24T06:46:32.068Z,99188.38
2023-04-24T06:47:54.636Z,99192.34
2023-04-24T06:49:17.374Z,99194.31
2023-04-24T06:50:39.945Z,99198.22
2023-04-24T06:52:02.397Z,99198.22
2023-04-24T06:53:24.876Z,99190.72
2023-04-24T06:54:47.381Z,99189.94
2023-04-24T06:56:10.033Z,99188.47
2023-04-24T06:57:34.197Z,99188.19
2023-04-24T06:58:56.819Z,99183.66
2023-04-24T07:00:19.801Z,99187.09
2023-04-24T07:01:42.430Z,99186.03
2023-04-24T07:03:06.438Z,99190.50
2023-04-24T07:04:29.367Z,99182.31
2023-04-24T07:05:52.256Z,99178.97
2023-04-24T07:07:17.820Z,99183.47
2023-04-24T07:08:40.407Z,99187.19
2023-04-24T07:10:04.924Z,99185.44
2023-04-24T07:11:30.129Z,99185.50
2023-04-24T07:12:54.305Z,99187.31
2023-04-24T07:14:16.794Z,99188.44
2023-04-24T07:15:39.852Z,99183.72
2023-04-24T07:17:02.354Z,99186.22
2023-04-24T07:18:25.415Z,99186.03
2023-04-24T07:19:48.052Z,99188.88
2023-04-24T07:21:10.562Z,99192.88
2023-04-24T07:22:33.012Z,99181.88
2023-04-24T07:23:55.671Z,99186.16
2023-04-24T07:25:18.308Z,99178.38
2023-04-24T07:26:41.431Z,99170.03
2023-04-24T07:28:05.619Z,99183.16
2023-04-24T07:29:28.059Z,99174.50
2023-04-24T07:30:50.536Z,99180.22
2023-04-24T07:32:13.001Z,99186.03
2023-04-24T07:33:37.438Z,99172.78
2023-04-24T07:35:00.007Z,99178.38
2023-04-24T07:36:22.452Z,99181.78
2023-04-24T07:37:46.810Z,99174.25
2023-04-24T07:39:10.327Z,99174.13
2023-04-24T07:40:32.866Z,99165.47
2023-04-24T07:41:55.353Z,99174.03
2023-04-24T07:43:19.254Z,99166.97
2023-04-24T07:44:41.735Z,99183.16
2023-04-24T07:46:04.864Z,99163.59
2023-04-24T07:47:28.940Z,99180.34
2023-04-24T07:49:01.784Z,99181.72
2023-04-24T07:50:32.222Z,99186.50
2023-04-24T07:51:54.695Z,99203.78
2023-04-24T07:53:17.392Z,99187.19
2023-04-24T07:54:39.905Z,99191.66
2023-04-24T07:56:02.401Z,99184.72
2023-04-24T07:57:24.905Z,99183.00
2023-04-24T07:58:48.676Z,99191.78
2023-04-24T08:00:12.275Z,99196.16
2023-04-24T08:01:34.850Z,99193.75
2023-04-24T08:02:57.497Z,99191.69
2023-04-24T08:04:20.530Z,99187.84
2023-04-24T08:05:44.063Z,99194.41
2023-04-24T08:07:06.721Z,99197.41
2023-04-24T08:08:29.354Z,99218.94
2023-04-24T08:09:51.871Z,99209.66
2023-04-24T08:11:14.362Z,99207.81
2023-04-24T08:12:36.907Z,99216.84
2023-04-24T08:14:01.095Z,99201.13
2023-04-24T08:15:23.605Z,99196.25
2023-04-24T08:16:46.446Z,99203.59
2023-04-24T08:18:09.917Z,99213.78
2023-04-24T08:19:32.436Z,99206.31
2023-04-24T08:20:55.152Z,99208.75
2023-04-24T08:22:18.041Z,99214.94
2023-04-24T08:23:40.468Z,99210.34
2023-04-24T08:25:03.029Z,99208.53
2023-04-24T08:26:25.874Z,99205.75
2023-04-24T08:27:48.337Z,99211.69
2023-04-24T08:29:12.328Z,99211.47
2023-04-24T08:30:34.760Z,99203.03
2023-04-24T08:31:57.390Z,99223.16
2023-04-24T08:33:20.008Z,99211.94
2023-04-24T08:34:42.499Z,99212.47
2023-04-24T08:36:05.952Z,99217.50
2023-04-24T08:37:29.579Z,99226.91
2023-04-24T08:38:52.125Z,99229.34
2023-04-24T08:40:16.363Z,99223.44
2023-04-24T08:41:39.959Z,99219.59
2023-04-24T08:43:02.734Z,99222.47
2023-04-24T08:44:26.835Z,99228.09
2023-04-24T08:45:49.779Z,99226.03
2023-04-24T08:47:15.219Z,99234.63
2023-04-24T08:48:39.784Z,99225.81
2023-04-24T08:50:04.001Z,99235.44
2023-04-24T08:51:28.435Z,99234.13
2023-04-24T08:52:54.197Z,99225.56
2023-04-24T08:54:16.900Z,99223.63
2023-04-24T08:55:39.956Z,99238.97
2023-04-24T08:57:05.455Z,99236.09
2023-04-24T08:58:28.563Z,99236.53
2023-04-24T08:59:52.948Z,99243.25
2023-04-24T09:01:15.993Z,99234.78
2023-04-24T09:02:38.973Z,99242.94
2023-04-24T09:04:04.336Z,99241.31
2023-04-24T09:05:28.465Z,99248.38
2023-04-24T09:06:51.429Z,99249.53
2023-04-24T09:08:15.635Z,99246.59
2023-04-24T09:09:40.706Z,99252.69
2023-04-24T09:11:04.611Z,99238.00
2023-04-24T09:12:27.498Z,99248.06
2023-04-24T09:13:50.532Z,99248.22
2023-04-24T09:15:14.873Z,99249.22
2023-04-24T09:16:55.557Z,99257.13
2023-04-24T09:18:19.033Z,99257.94
2023-04-24T09:19:42.739Z,99254.41
2023-04-24T09:21:08.942Z,99249.84
2023-04-24T09:22:32.384Z,99259.72
2023-04-24T09:24:06.076Z,99258.22
2023-04-24T09:25:34.364Z,99259.91
2023-04-24T09:26:59.801Z,99259.59
2023-04-24T09:28:27.651Z,99257.53
2023-04-24T09:29:56.786Z,99263.19
2023-04-24T09:31:23.109Z,99258.22
2023-04-24T09:32:45.793Z,99259.13
2023-04-24T09:34:08.585Z,99256.19
2023-04-24T09:35:13.183Z,99264.28
2023-04-24T09:36:19.387Z,99260.41
2023-04-24T09:37:30.558Z,99255.03
2023-04-24T09:38:34.189Z,99260.75
2023-04-24T09:39:37.090Z,99246.53
2023-04-24T09:40:41.438Z,99258.41
2023-04-24T09:41:48.719Z,99248.28
2023-04-24T09:42:54.351Z,99251.34
2023-04-24T09:43:58.057Z,99257.22
2023-04-24T09:45:11.913Z,99257.50
2023-04-24T09:46:22.475Z,99260.25
2023-04-24T09:47:25.485Z,99252.81
2023-04-24T09:48:35.671Z,99248.13
2023-04-24T09:49:40.188Z,99258.94
2023-04-24T09:50:48.183Z,99274.03
2023-04-24T09:51:50.957Z,99266.72
2023-04-24T09:52:59.651Z,99260.97
2023-04-24T09:54:01.432Z,99264.03
2023-04-24T09:55:04.586Z,99270.78
2023-04-24T09:56:10.020Z,99268.75
2023-04-24T09:57:11.828Z,99274.38
2023-04-24T09:58:14.557Z,99264.53
2023-04-24T09:59:18.656Z,99275.75
2023-04-24T10:00:24.033Z,99278.63
2023-04-24T10:01:45.614Z,99279.53
2023-04-24T10:02:52.071Z,99272.78
2023-04-24T10:03:55.290Z,99269.00
2023-04-24T10:05:00.827Z,99272.84
2023-04-24T10:06:09.501Z,99268.69
2023-04-24T10:07:12.310Z,99278.28
2023-04-24T10:08:15.933Z,99270.91
2023-04-24T10:09:19.946Z,99274.03
2023-04-24T10:10:21.916Z,99271.44
2023-04-24T10:11:25.834Z,99279.66
2023-04-24T10:12:29.907Z,99275.38
2023-04-24T10:13:34.220Z,99272.50
2023-04-24T10:14:38.688Z,99275.69
2023-04-24T10:15:42.413Z,99271.03
2023-04-24T10:16:47.827Z,99275.13
2023-04-24T10:17:53.562Z,99283.25
2023-04-24T10:18:57.103Z,99274.69
2023-04-24T10:20:02.523Z,99278.41
2023-04-24T10:21:05.745Z,99284.06
2023-04-24T10:22:08.923Z,99285.06
2023-04-24T10:23:12.873Z,99286.28
2023-04-24T10:24:16.870Z,99281.66
2023-04-24T10:25:20.925Z,99292.34
2023-04-24T10:26:24.911Z,99288.38
2023-04-24T10:27:28.278Z,99288.34
2023-04-24T10:28:33.868Z,99309.59
2023-04-24T10:29:38.276Z,99286.28
2023-04-24T10:30:43.671Z,99302.13
2023-04-24T10:31:48.399Z,99289.81
2023-04-24T10:32:50.945Z,99292.16
2023-04-24T10:33:55.242Z,99299.72
2023-04-24T10:34:57.588Z,99272.19
2023-04-24T10:36:01.241Z,99295.19
2023-04-24T10:37:04.542Z,99277.88
2023-04-24T10:38:11.137Z,99296.31
2023-04-24T10:39:16.686Z,99299.78
2023-04-24T10:40:19.811Z,99296.00
2023-04-24T10:41:24.335Z,99292.00
2023-04-24T10:42:28.699Z,99293.91
2023-04-24T10:43:31.464Z,99289.72
2023-04-24T10:44:37.982Z,99281.66
2023-04-24T10:45:41.417Z,99296.25
2023-04-24T10:46:48.535Z,99294.91
2023-04-24T10:48:04.345Z,99309.59
2023-04-24T10:49:09.851Z,99301.06
2023-04-24T10:50:11.768Z,99309.91
2023-04-24T10:51:16.170Z,99313.03
2023-04-24T10:52:18.921Z,99294.94
2023-04-24T10:53:24.987Z,99313.53
2023-04-24T10:54:29.492Z,99320.91
2023-04-24T10:55:43.134Z,99325.94
2023-04-24T10:56:45.159Z,99309.19
2023-04-24T10:58:04.751Z,99315.75
2023-04-24T10:59:10.694Z,99315.63
2023-04-24T11:00:19.128Z,99312.31
2023-04-24T11:01:26.293Z,99315.84
2023-04-24T11:02:39.121Z,99308.88
2023-04-24T11:03:53.282Z,99317.50
2023-04-24T11:04:55.754Z,99304.75
2023-04-24T11:06:00.956Z,99305.75
2023-04-24T11:07:04.734Z,99310.25
2023-04-24T11:08:13.522Z,99318.06
2023-04-24T11:09:17.653Z,99303.22
2023-04-24T11:10:27.025Z,99308.97
2023-04-24T11:11:31.325Z,99318.03
2023-04-24T11:12:36.099Z,99305.91
2023-04-24T11:14:05.459Z,99310.97
2023-04-24T11:15:12.212Z,99329.03
2023-04-24T11:16:16.013Z,99305.72
2023-04-24T11:17:30.974Z,99318.41
2023-04-24T11:18:41.089Z,99328.31
2023-04-24T11:19:43.861Z,99299.59
2023-04-24T11:20:45.978Z,99317.19
2023-04-24T11:21:50.542Z,99316.66
2023-04-24T11:22:56.673Z,99319.66
2023-04-24T11:23:59.438Z,99320.22
2023-04-24T11:25:04.383Z,99308.16
2023-04-24T11:26:13.701Z,99317.81
2023-04-24T11:27:18.932Z,99314.31
2023-04-24T11:28:20.824Z,99313.28
2023-04-24T11:29:24.531Z,99313.34
2023-04-24T11:30:31.857Z,99314.34
2023-04-24T11:31:38.485Z,99311.59
2023-04-24T11:32:43.021Z,99314.31
2023-04-24T11:33:46.230Z,99318.41
2023-04-24T11:34:50.157Z,99330.53
2023-04-24T11:35:53.324Z,99338.88
2023-04-24T11:36:55.133Z,99330.91
2023-04-24T11:39:04.650Z,99346.44
2023-04-24T11:40:09.285Z,99346.16
2023-04-24T11:41:11.262Z,99341.19
2023-04-24T11:42:17.028Z,99349.28
2023-04-24T11:43:20.845Z,99341.00
2023-04-24T11:44:25.885Z,99333.44
2023-04-24T11:45:32.000Z,99346.72
2023-04-24T11:46:34.063Z,99374.56
2023-04-24T11:47:37.064Z,99333.66
2023-04-24T11:48:41.051Z,99331.19
2023-04-24T11:49:45.331Z,99334.81
2023-04-24T11:50:48.951Z,99334.59
2023-04-24T11:51:53.986Z,99330.72
2023-04-24T11:52:58.695Z,99331.53
2023-04-24T11:54:04.545Z,99335.09
2023-04-24T11:55:10.050Z,99332.31
2023-04-24T11:56:11.920Z,99335.50
2023-04-24T11:57:14.956Z,99325.16
2023-04-24T11:58:23.124Z,99334.59
2023-04-24T11:59:25.072Z,99343.44
2023-04-24T12:00:29.833Z,99329.31
2023-04-24T12:01:44.893Z,99344.75
2023-04-24T12:02:47.765Z,99342.19
2023-04-24T12:03:52.551Z,99337.75
2023-04-24T12:04:57.785Z,99352.03
2023-04-24T12:06:08.696Z,99334.00
2023-04-24T12:07:12.129Z,99335.41
2023-04-24T12:08:28.385Z,99340.56
2023-04-24T12:09:42.101Z,99348.47
2023-04-24T12:10:44.833Z,99340.25
2023-04-24T12:11:54.026Z,99333.75
2023-04-24T12:12:58.251Z,99329.91
2023-04-24T12:14:12.275Z,99329.16
2023-04-24T12:15:15.054Z,99331.53
2023-04-24T12:16:18.000Z,99321.16
2023-04-24T12:17:26.936Z,99339.88
2023-04-24T12:18:31.468Z,99321.56
2023-04-24T12:19:34.172Z,99331.53
2023-04-24T12:20:38.464Z,99334.19
2023-04-24T12:21:40.557Z,99341.78
2023-04-24T12:22:47.584Z,99348.38
2023-04-24T12:23:51.859Z,99341.53
2023-04-24T12:24:57.950Z,99337.75
2023-04-24T12:26:02.740Z,99336.91
2023-04-24T12:27:05.577Z,99337.34
2023-04-24T12:28:13.023Z,99349.56
2023-04-24T12:29:22.010Z,99338.06
2023-04-24T12:30:28.561Z,99329.47
2023-04-24T12:31:33.225Z,99332.88
2023-04-24T12:32:35.993Z,99330.31
2023-04-24T12:33:38.024Z,99339.75
2023-04-24T12:34:41.102Z,99339.06
2023-04-24T12:35:45.129Z,99325.78
2023-04-24T12:36:46.833Z,99327.06
2023-04-24T12:37:49.585Z,99332.03
2023-04-24T12:38:55.225Z,99318.28
2023-04-24T12:40:01.643Z,99333.47
2023-04-24T12:41:06.488Z,99320.44
2023-04-24T12:42:08.364Z,99323.38
2023-04-24T12:43:16.693Z,99328.34
2023-04-24T12:44:19.664Z,99330.34
2023-04-24T12:45:24.351Z,99332.41
2023-04-24T12:46:26.307Z,99321.94
2023-04-24T12:47:30.076Z,99320.19
2023-04-24T12:48:33.262Z,99313.09
2023-04-24T12:49:35.149Z,99318.94
2023-04-24T12:50:38.114Z,99325.38
2023-04-24T12:51:41.189Z,99314.81
2023-04-24T12:52:45.173Z,99313.56
2023-04-24T12:53:47.654Z,99310.41
2023-04-24T12:54:49.419Z,99326.91
2023-04-24T12:55:54.202Z,99319.81
2023-04-24T12:56:57.637Z,99312.59
2023-04-24T12:58:00.593Z,99318.44
2023-04-24T12:59:03.754Z,99319.47
2023-04-24T13:00:08.959Z,99320.38
2023-04-24T13:01:11.110Z,99320.66
2023-04-24T13:02:14.292Z,99317.94
2023-04-24T13:03:17.340Z,99311.63
2023-04-24T13:04:19.671Z,99314.41
2023-04-24T13:05:25.175Z,99312.78
2023-04-24T13:06:28.678Z,99306.97
2023-04-24T13:07:31.937Z,99307.66
2023-04-24T13:08:34.699Z,99300.34
2023-04-24T13:09:36.865Z,99311.78
2023-04-24T13:10:40.028Z,99310.44
2023-04-24T13:11:41.830Z,99315.56
2023-04-24T13:12:46.389Z,99313.69
2023-04-24T13:13:48.130Z,99319.03
2023-04-24T13:14:50.848Z,99303.66
2023-04-24T13:15:53.724Z,99312.47
2023-04-24T13:16:55.691Z,99314.13
2023-04-24T13:17:58.466Z,99325.56
2023-04-24T13:19:01.290Z,99320.72
2023-04-24T13:20:03.837Z,99319.16
2023-04-24T13:21:06.888Z,99314.28
2023-04-24T13:22:10.937Z,99331.34
2023-04-24T13:23:15.794Z,99337.47
2023-04-24T13:24:18.208Z,99335.41
2023-04-24T13:25:21.443Z,99327.94
2023-04-24T13:26:24.195Z,99327.56
2023-04-24T13:27:26.958Z,99340.28
2023-04-24T13:28:28.903Z,99315.91
2023-04-24T13:29:31.775Z,99340.63
2023-04-24T13:30:34.592Z,99353.50
2023-04-24T13:31:36.613Z,99329.91
2023-04-24T13:32:39.419Z,99338.97
2023-04-24T13:33:42.362Z,99333.00
2023-04-24T13:34:44.310Z,99334.13
2023-04-24T13:35:46.865Z,99328.66
2023-04-24T13:36:48.590Z,99331.28
2023-04-24T13:37:51.241Z,99335.69
2023-04-24T13:38:54.371Z,99328.28
2023-04-24T13:39:57.376Z,99332.47
2023-04-24T13:40:59.251Z,99326.22
2023-04-24T13:42:04.440Z,99331.88
2023-04-24T13:43:07.811Z,99344.38
2023-04-24T13:44:10.363Z,99332.59
2023-04-24T13:45:23.903Z,99321.00
2023-04-24T13:46:26.954Z,99343.97
2023-04-24T13:47:29.992Z,99325.38
2023-04-24T13:48:31.766Z,99330.16
2023-04-24T13:49:34.746Z,99330.41
2023-04-24T13:50:37.550Z,99325.69
2023-04-24T13:51:39.952Z,99326.47
2023-04-24T13:52:42.696Z,99332.16
2023-04-24T13:53:44.684Z,99341.97
2023-04-24T13:54:49.094Z,99332.09
2023-04-24T13:55:51.194Z,99359.72
2023-04-24T13:56:54.399Z,99331.94
2023-04-24T13:57:56.324Z,99342.53
2023-04-24T13:58:59.080Z,99343.94
2023-04-24T14:00:04.841Z,99377.78
2023-04-24T14:01:07.179Z,99345.66
2023-04-24T14:02:10.172Z,99337.25
2023-04-24T14:03:12.176Z,99363.88
2023-04-24T14:04:15.628Z,99355.00
2023-04-24T14:05:19.375Z,99350.22
2023-04-24T14:06:21.817Z,99356.84
2023-04-24T14:07:24.583Z,99339.22
2023-04-24T14:08:27.677Z,99345.63
2023-04-24T14:09:30.067Z,99355.22
2023-04-24T14:10:34.227Z,99350.47
2023-04-24T14:11:36.448Z,99340.13
2023-04-24T14:12:39.203Z,99365.50
2023-04-24T14:13:42.681Z,99349.03
2023-04-24T14:14:45.817Z,99347.50
2023-04-24T14:15:47.522Z,99334.81
2023-04-24T14:16:50.423Z,99347.75
2023-04-24T14:17:53.432Z,99356.22
2023-04-24T14:18:55.855Z,99343.06
2023-04-24T14:20:00.917Z,99347.75
2023-04-24T14:21:02.848Z,99348.66
2023-04-24T14:22:05.645Z,99365.59
2023-04-24T14:23:07.412Z,99356.09
2023-04-24T14:24:10.276Z,99359.28
2023-04-24T14:25:12.264Z,99381.19
2023-04-24T14:26:16.345Z,99374.00
2023-04-24T14:27:18.542Z,99367.09
2023-04-24T14:28:22.050Z,99375.91
2023-04-24T14:29:26.888Z,99379.72
2023-04-24T14:30:28.762Z,99381.06
2023-04-24T14:31:31.837Z,99375.47
2023-04-24T14:32:33.722Z,99378.69
2023-04-24T14:33:36.564Z,99386.44
2023-04-24T14:34:38.468Z,99389.22
2023-04-24T14:35:43.023Z,99401.81
2023-04-24T14:36:44.855Z,99384.91
2023-04-24T14:37:47.309Z,99391.34
2023-04-24T14:38:49.075Z,99402.53
2023-04-24T14:40:04.657Z,99403.34
2023-04-24T14:41:14.036Z,99398.06
2023-04-24T14:42:18.095Z,99389.34
2023-04-24T14:43:21.016Z,99394.50
2023-04-24T14:44:22.822Z,99401.84
2023-04-24T14:45:25.494Z,99389.81
2023-04-24T14:46:28.204Z,99411.66
2023-04-24T14:47:31.528Z,99407.09